createdAt,value
2018-09-25T00:02:27.627Z,99.90
2018-09-25T00:05:03.767Z,99.90
2018-09-25T00:07:39.385Z,99.90
2018-09-25T00:10:14.118Z,99.90
2018-09-25T00:12:48.412Z,99.90
2018-09-25T00:15:22.627Z,99.90
2018-09-25T00:17:56.751Z,99.90
2018-09-25T00:20:30.867Z,99.90
2018-09-25T00:23:05.069Z,99.90
2018-09-25T00:25:39.399Z,99.90
2018-09-25T00:28:13.576Z,99.90
2018-09-25T00:30:47.858Z,99.90
2018-09-25T00:33:21.899Z,99.90
2018-09-25T00:35:56.166Z,99.90
2018-09-25T00:38:30.274Z,99.90
2018-09-25T00:41:04.419Z,99.90
2018-09-25T00:43:38.640Z,99.90
2018-09-25T00:46:12.712Z,99.90
2018-09-25T00:48:46.803Z,99.90
2018-09-25T00:51:20.918Z,99.90
2018-09-25T00:53:55.262Z,99.90
2018-09-25T00:56:29.339Z,99.90
2018-09-25T00:59:03.598Z,99.90
2018-09-25T01:01:37.725Z,99.90
2018-09-25T01:04:11.886Z,99.90
2018-09-25T01:06:46.152Z,99.90
2018-09-25T01:09:20.249Z,99.90
2018-09-25T01:11:54.515Z,99.90
2018-09-25T01:14:28.638Z,99.90
2018-09-25T01:17:02.986Z,99.90
2018-09-25T01:19:37.138Z,99.90
2018-09-25T01:22:11.322Z,99.90
2018-09-25T01:24:45.535Z,99.90
2018-09-25T01:27:19.826Z,99.90
2018-09-25T01:29:53.996Z,99.90
2018-09-25T01:32:28.103Z,99.90
2018-09-25T01:35:02.293Z,99.90
2018-09-25T01:37:36.223Z,99.90
2018-09-25T01:40:10.239Z,99.90
2018-09-25T01:42:44.416Z,99.90
2018-09-25T01:45:18.955Z,99.90
2018-09-25T01:47:54.468Z,99.90
2018-09-25T01:50:30.079Z,99.90
2018-09-25T01:53:05.125Z,99.90
2018-09-25T01:55:39.287Z,99.90
2018-09-25T01:58:13.500Z,99.90
2018-09-25T02:00:47.807Z,99.90
2018-09-25T02:03:22.028Z,99.90
2018-09-25T02:05:56.163Z,99.90
2018-09-25T02:08:30.271Z,99.90
2018-09-25T02:11:04.570Z,99.90
2018-09-25T02:13:38.571Z,99.90
2018-09-25T02:16:12.859Z,99.90
2018-09-25T02:18:47.112Z,99.90
2018-09-25T02:21:21.171Z,99.90
2018-09-25T02:23:55.350Z,99.90
2018-09-25T02:26:29.456Z,99.90
2018-09-25T02:29:03.556Z,99.90
2018-09-25T02:31:38.372Z,99.90
2018-09-25T02:34:12.588Z,99.90
2018-09-25T02:36:46.762Z,99.90
2018-09-25T02:39:20.849Z,99.90
2018-09-25T02:41:55.076Z,99.90
2018-09-25T02:44:29.147Z,99.90
2018-09-25T02:47:03.812Z,99.90
2018-09-25T02:49:39.979Z,99.90
2018-09-25T02:52:14.272Z,99.90
2018-09-25T02:54:48.496Z,99.90
2018-09-25T02:57:22.603Z,99.90
2018-09-25T02:59:56.722Z,99.90
2018-09-25T03:02:31.639Z,99.90
2018-09-25T03:05:05.870Z,99.90
2018-09-25T03:07:40.172Z,99.90
2018-09-25T03:10:14.269Z,99.90
2018-09-25T03:12:48.408Z,99.90
2018-09-25T03:15:22.659Z,99.90
2018-09-25T03:17:56.843Z,99.90
2018-09-25T03:20:30.987Z,99.90
2018-09-25T03:23:05.287Z,99.90
2018-09-25T03:25:39.477Z,99.90
2018-09-25T03:28:13.835Z,99.90
2018-09-25T03:30:48.611Z,99.90
2018-09-25T03:33:22.646Z,99.90
2018-09-25T03:35:56.764Z,99.90
2018-09-25T03:38:30.952Z,99.90
2018-09-25T03:41:05.072Z,99.90
2018-09-25T03:43:39.218Z,99.90
2018-09-25T03:46:13.315Z,99.90
2018-09-25T03:48:47.606Z,99.90
2018-09-25T03:51:21.658Z,99.90
2018-09-25T03:53:55.928Z,99.90
2018-09-25T03:56:30.241Z,99.90
2018-09-25T03:59:04.362Z,99.90
2018-09-25T04:01:39.392Z,99.90
2018-09-25T04:04:13.985Z,99.90
2018-09-25T04:06:48.674Z,99.90
2018-09-25T04:09:23.631Z,99.90
2018-09-25T04:12:00.450Z,99.90
2018-09-25T04:14:34.744Z,99.90
2018-09-25T04:17:08.810Z,99.90
2018-09-25T04:19:42.978Z,99.90
2018-09-25T04:22:17.203Z,99.90
2018-09-25T04:24:52.292Z,99.90
2018-09-25T04:27:27.385Z,99.90
2018-09-25T04:30:01.484Z,99.90
2018-09-25T04:32:36.150Z,99.90
2018-09-25T04:35:10.364Z,99.90
2018-09-25T04:37:44.704Z,99.90
2018-09-25T04:40:19.271Z,99.90
2018-09-25T04:42:53.390Z,99.90
2018-09-25T04:45:28.563Z,99.90
2018-09-25T04:48:02.887Z,99.90
2018-09-25T04:50:38.347Z,99.90
2018-09-25T04:53:13.468Z,99.90
2018-09-25T04:55:50.267Z,99.90
2018-09-25T04:58:26.216Z,99.90
2018-09-25T05:01:01.111Z,99.90
2018-09-25T05:03:35.303Z,99.90
2018-09-25T05:06:10.940Z,99.90
2018-09-25T05:08:45.176Z,99.90
2018-09-25T05:11:20.036Z,99.90
2018-09-25T05:13:56.119Z,99.90
2018-09-25T05:16:31.033Z,99.90
2018-09-25T05:19:05.989Z,99.90
2018-09-25T05:21:41.758Z,99.90
2018-09-25T05:24:15.958Z,99.90
2018-09-25T05:26:49.890Z,99.90
2018-09-25T05:29:23.768Z,99.90
2018-09-25T05:31:58.007Z,99.90
2018-09-25T05:34:31.965Z,99.90
2018-09-25T05:37:06.157Z,99.90
2018-09-25T05:39:40.143Z,99.90
2018-09-25T05:42:13.985Z,99.90
2018-09-25T05:44:47.988Z,99.90
2018-09-25T05:47:22.183Z,99.90
2018-09-25T05:49:55.952Z,99.90
2018-09-25T05:52:30.022Z,99.90
2018-09-25T05:55:03.935Z,99.90
2018-09-25T05:57:37.951Z,99.90
2018-09-25T06:00:11.918Z,99.90
2018-09-25T06:02:45.994Z,99.90
2018-09-25T06:05:19.835Z,99.90
2018-09-25T06:07:53.679Z,99.90
2018-09-25T06:10:27.515Z,99.90
2018-09-25T06:13:01.571Z,99.90
2018-09-25T06:15:35.804Z,99.90
2018-09-25T06:18:09.932Z,99.90
2018-09-25T06:20:43.851Z,99.90
2018-09-25T06:23:17.639Z,99.90
2018-09-25T06:25:51.494Z,99.90
2018-09-25T06:28:25.407Z,99.90
2018-09-25T06:30:59.387Z,99.90
2018-09-25T06:33:33.319Z,99.90
2018-09-25T06:36:07.010Z,99.90
2018-09-25T06:38:41.164Z,99.90
2018-09-25T06:41:15.763Z,99.90
2018-09-25T06:43:49.914Z,99.90
2018-09-25T06:46:23.989Z,99.90
2018-09-25T06:48:58.075Z,99.90
2018-09-25T06:51:31.990Z,99.90
2018-09-25T06:54:05.932Z,99.90
2018-09-25T06:56:40.077Z,99.90
2018-09-25T06:59:14.094Z,99.90
2018-09-25T07:01:47.949Z,99.90
2018-09-25T07:04:21.831Z,99.90
2018-09-25T07:06:55.690Z,99.90
2018-09-25T07:09:29.587Z,85.20
2018-09-25T07:12:03.555Z,99.90
2018-09-25T07:14:37.359Z,99.90
2018-09-25T07:17:11.385Z,68.60
2018-09-25T07:19:45.366Z,69.90
2018-09-25T07:22:19.359Z,54.50
2018-09-25T07:24:53.351Z,85.40
2018-09-25T07:27:27.319Z,69.70
2018-09-25T07:30:01.218Z,99.90
2018-09-25T07:32:35.112Z,58.70
2018-09-25T07:35:09.043Z,47.40
2018-09-25T07:37:42.959Z,46.40
2018-09-25T07:40:16.760Z,50.30
2018-09-25T07:42:50.707Z,50.70
2018-09-25T07:45:24.568Z,44.20
2018-09-25T07:47:58.336Z,47.10
2018-09-25T07:50:32.404Z,43.60
2018-09-25T07:53:06.508Z,48.00
2018-09-25T07:55:40.537Z,43.60
2018-09-25T07:58:14.464Z,56.00
2018-09-25T08:00:48.556Z,59.10
2018-09-25T08:03:23.570Z,91.10
2018-09-25T08:05:58.123Z,72.20
2018-09-25T08:08:32.122Z,84.40
2018-09-25T08:11:06.320Z,67.20
2018-09-25T08:13:41.141Z,80.80
2018-09-25T08:16:16.120Z,52.70
2018-09-25T08:18:51.756Z,51.50
2018-09-25T08:21:27.749Z,45.00
2018-09-25T08:24:03.720Z,38.90
2018-09-25T08:26:38.798Z,38.80
2018-09-25T08:29:13.841Z,36.20
2018-09-25T08:31:49.682Z,36.00
2018-09-25T08:34:25.419Z,33.00
2018-09-25T08:37:02.350Z,32.10
2018-09-25T08:39:39.401Z,31.80
2018-09-25T08:42:14.514Z,32.50
2018-09-25T08:44:49.486Z,33.40
2018-09-25T08:47:25.260Z,35.20
2018-09-25T08:49:59.983Z,35.20
2018-09-25T08:52:34.997Z,39.20
2018-09-25T08:55:10.844Z,36.30
2018-09-25T08:57:46.735Z,36.20
2018-09-25T09:00:22.651Z,34.30
2018-09-25T09:03:00.968Z,35.60
2018-09-25T09:09:47.934Z,35.20
2018-09-25T09:12:22.932Z,30.10
2018-09-25T09:14:57.857Z,29.50
2018-09-25T09:17:32.769Z,29.70
2018-09-25T09:20:10.850Z,30.30
2018-09-25T09:22:57.380Z,26.20
2018-09-25T09:25:41.864Z,26.80
2018-09-25T09:28:19.367Z,26.80
2018-09-25T09:30:55.737Z,27.20
2018-09-25T09:33:32.409Z,27.40
2018-09-25T09:36:08.699Z,25.90
2018-09-25T09:38:49.873Z,25.60
2018-09-25T09:41:25.617Z,27.40
2018-09-25T09:44:01.480Z,26.40
2018-09-25T09:46:37.406Z,26.20
2018-09-25T09:49:30.258Z,24.90
2018-09-25T09:52:06.577Z,25.40
2018-09-25T09:54:54.551Z,25.50
2018-09-25T09:57:35.662Z,24.70
2018-09-25T10:03:06.674Z,25.10
2018-09-25T10:06:02.515Z,25.30
2018-09-25T10:08:54.761Z,24.70
2018-09-25T10:11:31.713Z,25.70
2018-09-25T10:20:20.712Z,26.30
2018-09-25T10:23:02.155Z,24.50
2018-09-25T10:25:40.460Z,25.80
2018-09-25T10:28:23.751Z,25.40
2018-09-25T10:31:04.411Z,23.30
2018-09-25T10:33:41.436Z,25.10
2018-09-25T10:36:23.212Z,25.50
2018-09-25T10:38:59.041Z,25.30
2018-09-25T10:41:47.122Z,26.00
2018-09-25T10:44:26.425Z,25.70
2018-09-25T10:47:01.387Z,26.40
2018-09-25T10:49:42.001Z,25.10
2018-09-25T10:52:18.589Z,25.20
2018-09-25T10:54:54.100Z,24.30
2018-09-25T10:57:33.899Z,23.00
2018-09-25T11:00:10.044Z,23.40
2018-09-25T11:02:47.781Z,23.80
2018-09-25T11:08:57.456Z,23.80
2018-09-25T11:11:32.525Z,25.20
2018-09-25T11:14:08.425Z,25.70
2018-09-25T11:16:44.004Z,26.90
2018-09-25T11:19:19.910Z,28.40
2018-09-25T11:21:55.813Z,27.80
2018-09-25T11:24:32.131Z,25.60
2018-09-25T11:27:08.955Z,25.00
2018-09-25T11:29:43.919Z,25.00
2018-09-25T11:32:20.879Z,23.80
2018-09-25T11:34:55.726Z,24.40
2018-09-25T11:37:37.440Z,23.30
2018-09-25T11:40:14.235Z,25.30
2018-09-25T11:42:52.528Z,25.30
2018-09-25T11:45:28.987Z,24.20
2018-09-25T11:48:04.326Z,23.40
2018-09-25T11:50:40.719Z,24.40
2018-09-25T11:53:17.136Z,24.60
2018-09-25T11:55:52.967Z,25.40
2018-09-25T11:58:30.134Z,23.40
2018-09-25T12:01:06.650Z,23.20
2018-09-25T12:03:42.732Z,24.80
2018-09-25T12:06:18.620Z,24.10
2018-09-25T12:08:54.854Z,23.70
2018-09-25T12:11:29.759Z,25.20
2018-09-25T12:14:04.644Z,24.10
2018-09-25T12:16:42.153Z,25.10
2018-09-25T12:19:17.469Z,26.20
2018-09-25T12:21:53.259Z,24.60
2018-09-25T12:24:29.026Z,24.10
2018-09-25T12:27:05.637Z,24.40
2018-09-25T12:29:40.841Z,24.00
2018-09-25T12:32:16.805Z,25.00
2018-09-25T12:34:52.719Z,23.50
2018-09-25T12:37:27.944Z,24.20
2018-09-25T12:40:04.466Z,22.90
2018-09-25T12:42:39.752Z,25.80
2018-09-25T12:45:15.548Z,27.40
2018-09-25T12:47:51.121Z,26.90
2018-09-25T12:50:27.182Z,26.00
2018-09-25T12:53:02.275Z,24.80
2018-09-25T12:55:37.148Z,23.60
2018-09-25T12:58:12.876Z,25.30
2018-09-25T13:00:48.797Z,24.90
2018-09-25T13:03:24.718Z,25.30
2018-09-25T13:06:02.964Z,26.20
2018-09-25T13:08:37.832Z,27.70
2018-09-25T13:11:13.640Z,26.00
2018-09-25T13:13:54.307Z,27.70
2018-09-25T13:16:52.537Z,25.70
2018-09-25T13:19:28.459Z,25.40
2018-09-25T13:22:04.584Z,26.60
2018-09-25T13:24:47.715Z,25.30
2018-09-25T13:27:23.420Z,25.70
2018-09-25T13:29:58.903Z,25.60
2018-09-25T13:32:34.301Z,25.30
2018-09-25T13:35:09.532Z,25.40
2018-09-25T13:37:44.427Z,25.70
2018-09-25T13:40:20.077Z,27.50
2018-09-25T13:42:55.261Z,24.70
2018-09-25T13:45:30.859Z,25.70
2018-09-25T13:48:06.860Z,25.60
2018-09-25T13:50:41.814Z,27.10
2018-09-25T13:53:17.780Z,26.50
2018-09-25T13:55:53.773Z,27.60
2018-09-25T13:58:29.572Z,26.90
2018-09-25T14:01:04.606Z,26.50
2018-09-25T14:03:40.425Z,25.10
2018-09-25T14:06:15.535Z,26.70
2018-09-25T14:08:51.884Z,28.50
2018-09-25T14:11:29.501Z,28.40
2018-09-25T14:14:11.528Z,30.30
2018-09-25T14:16:53.381Z,30.50
2018-09-25T14:19:29.172Z,30.70
2018-09-25T14:22:04.294Z,30.00
2018-09-25T14:24:40.282Z,31.40
2018-09-25T14:27:16.072Z,30.80
2018-09-25T14:29:51.776Z,31.90
2018-09-25T14:32:27.059Z,33.20
2018-09-25T14:35:02.655Z,31.00
2018-09-25T14:37:38.484Z,31.70
2018-09-25T14:40:13.857Z,31.50
2018-09-25T14:42:48.481Z,31.40
2018-09-25T14:45:24.251Z,32.80
2018-09-25T14:47:59.379Z,31.80
2018-09-25T14:50:34.398Z,32.50
2018-09-25T14:53:10.130Z,32.60
2018-09-25T14:55:46.108Z,34.00
2018-09-25T14:58:21.889Z,32.10
2018-09-25T15:00:57.264Z,31.70
2018-09-25T15:03:33.196Z,31.60
2018-09-25T15:06:19.171Z,30.60
2018-09-25T15:08:56.143Z,30.60
2018-09-25T15:11:32.526Z,31.50
2018-09-25T15:14:09.430Z,32.70
2018-09-25T15:16:43.925Z,31.60
2018-09-25T15:19:19.642Z,31.80
2018-09-25T15:21:54.765Z,32.70
2018-09-25T15:24:29.672Z,32.80
2018-09-25T15:27:04.313Z,31.30
2018-09-25T15:29:39.478Z,32.20
2018-09-25T15:32:14.240Z,31.10
2018-09-25T15:34:50.011Z,31.30
2018-09-25T15:37:25.868Z,31.40
2018-09-25T15:40:00.948Z,32.90
2018-09-25T15:42:35.707Z,33.50
2018-09-25T15:45:11.036Z,33.40
2018-09-25T15:47:46.113Z,36.50
2018-09-25T15:50:20.115Z,35.30
2018-09-25T15:52:54.492Z,37.60
2018-09-25T15:55:28.531Z,35.90
2018-09-25T15:58:02.495Z,33.90
2018-09-25T16:00:37.399Z,34.50
2018-09-25T16:03:12.079Z,34.60
2018-09-25T16:05:46.043Z,35.40
2018-09-25T16:08:21.135Z,35.10
2018-09-25T16:10:56.664Z,36.40
2018-09-25T16:13:30.636Z,38.70
2018-09-25T16:16:06.455Z,40.50
2018-09-25T16:18:40.908Z,42.30
2018-09-25T16:21:15.768Z,41.70
2018-09-25T16:23:50.628Z,41.10
2018-09-25T16:26:26.301Z,38.60
2018-09-25T16:29:03.164Z,39.60
2018-09-25T16:31:39.036Z,41.90
2018-09-25T16:34:14.356Z,44.00
2018-09-25T16:36:49.313Z,46.50
2018-09-25T16:39:25.048Z,48.00
2018-09-25T16:41:59.979Z,48.80
2018-09-25T16:44:35.866Z,51.70
2018-09-25T16:47:10.779Z,61.30
2018-09-25T16:49:46.714Z,91.30
2018-09-25T16:52:22.477Z,99.90
2018-09-25T16:54:58.099Z,99.90
2018-09-25T16:57:33.606Z,99.90
2018-09-25T17:00:09.318Z,99.90
2018-09-25T17:02:44.359Z,99.90
2018-09-25T17:05:20.300Z,99.90
2018-09-25T17:07:54.927Z,99.90
2018-09-25T17:10:29.973Z,99.90
2018-09-25T17:13:04.952Z,99.90
2018-09-25T17:15:40.637Z,99.90
2018-09-25T17:18:15.889Z,99.90
2018-09-25T17:20:50.407Z,99.90
2018-09-25T17:23:26.413Z,99.90
2018-09-25T17:26:01.011Z,99.90
2018-09-25T17:28:35.486Z,99.90
2018-09-25T17:31:11.396Z,99.90
2018-09-25T17:33:46.384Z,99.90
2018-09-25T17:36:21.104Z,99.90
2018-09-25T17:38:56.863Z,99.90
2018-09-25T17:41:32.775Z,99.90
2018-09-25T17:44:08.684Z,99.90
2018-09-25T17:46:44.581Z,99.90
2018-09-25T17:49:19.508Z,99.90
2018-09-25T17:51:54.043Z,99.90
2018-09-25T17:54:28.656Z,99.90
2018-09-25T17:57:04.171Z,99.90
2018-09-25T17:59:38.429Z,99.90
2018-09-25T18:02:13.400Z,99.90
2018-09-25T18:04:47.808Z,99.90
2018-09-25T18:07:23.016Z,99.90
2018-09-25T18:09:57.119Z,99.90
2018-09-25T18:12:31.271Z,99.90
2018-09-25T18:15:06.725Z,99.90
2018-09-25T18:17:42.128Z,99.90
2018-09-25T18:20:16.458Z,99.90
2018-09-25T18:22:51.452Z,99.90
2018-09-25T18:25:27.264Z,99.90
2018-09-25T18:28:02.455Z,99.90
2018-09-25T18:30:37.476Z,99.90
2018-09-25T18:33:13.299Z,99.90
2018-09-25T18:35:48.115Z,99.90
2018-09-25T18:38:22.885Z,99.90
2018-09-25T18:40:57.458Z,99.90
2018-09-25T18:43:33.237Z,99.90
2018-09-25T18:46:09.032Z,99.90
2018-09-25T18:48:44.931Z,99.90
2018-09-25T18:51:20.909Z,99.90
2018-09-25T18:53:56.520Z,99.90
2018-09-25T18:56:31.583Z,99.90
2018-09-25T18:59:06.568Z,99.90
2018-09-25T19:01:41.596Z,99.90
2018-09-25T19:04:16.520Z,99.90
2018-09-25T19:06:51.174Z,99.90
2018-09-25T19:09:25.339Z,99.90
2018-09-25T19:12:01.913Z,99.90
2018-09-25T19:14:37.051Z,99.90
2018-09-25T19:17:12.119Z,99.90
2018-09-25T19:19:46.771Z,99.90
2018-09-25T19:22:21.767Z,99.90
2018-09-25T19:24:56.720Z,99.90
2018-09-25T19:27:31.743Z,99.90
2018-09-25T19:30:08.349Z,99.90
2018-09-25T19:32:44.164Z,99.90
2018-09-25T19:35:19.376Z,99.90
2018-09-25T19:37:54.421Z,99.90
2018-09-25T19:40:31.012Z,99.90
2018-09-25T19:43:06.336Z,99.90
2018-09-25T19:45:42.203Z,99.90
2018-09-25T19:48:17.904Z,99.90
2018-09-25T19:50:53.193Z,99.90
2018-09-25T19:53:28.944Z,99.90
2018-09-25T19:56:04.836Z,99.90
2018-09-25T19:58:39.996Z,99.90
2018-09-25T20:01:15.896Z,99.90
2018-09-25T20:03:50.837Z,99.90
2018-09-25T20:06:26.594Z,99.90
2018-09-25T20:09:02.628Z,99.90
2018-09-25T20:11:38.592Z,99.90
2018-09-25T20:14:14.538Z,99.90
2018-09-25T20:16:51.352Z,99.90
2018-09-25T20:19:27.291Z,99.90
2018-09-25T20:22:03.199Z,99.90
2018-09-25T20:24:39.200Z,99.90
2018-09-25T20:27:15.055Z,99.90
2018-09-25T20:29:51.020Z,99.90
2018-09-25T20:32:27.056Z,99.90
2018-09-25T20:35:03.771Z,99.90
2018-09-25T20:37:39.713Z,99.90
2018-09-25T20:40:15.584Z,99.90
2018-09-25T20:42:50.719Z,99.90
2018-09-25T20:45:25.680Z,99.90
2018-09-25T20:47:59.759Z,99.90
2018-09-25T20:50:33.907Z,99.90
2018-09-25T20:53:08.022Z,99.90
2018-09-25T20:55:42.775Z,99.90
2018-09-25T20:58:17.100Z,99.90
2018-09-25T21:00:51.970Z,99.90
2018-09-25T21:03:26.907Z,99.90
2018-09-25T21:06:01.543Z,99.90
2018-09-25T21:08:36.651Z,99.90
2018-09-25T21:11:11.403Z,99.90
2018-09-25T21:13:45.795Z,99.90
2018-09-25T21:16:20.056Z,99.90
2018-09-25T21:18:54.200Z,99.90
2018-09-25T21:21:28.467Z,99.90
2018-09-25T21:24:02.928Z,99.90
2018-09-25T21:26:37.271Z,99.90
2018-09-25T21:29:12.856Z,99.90
2018-09-25T21:31:49.093Z,99.90
2018-09-25T21:34:24.810Z,99.90
2018-09-25T21:36:59.732Z,99.90
2018-09-25T21:39:34.915Z,99.90
2018-09-25T21:42:10.488Z,99.90
2018-09-25T21:44:45.471Z,99.90
2018-09-25T21:47:19.684Z,99.90
2018-09-25T21:49:55.287Z,99.90
2018-09-25T21:52:29.451Z,99.90
2018-09-25T21:55:03.735Z,99.90
2018-09-25T21:57:37.988Z,99.90
2018-09-25T22:00:12.996Z,99.90
2018-09-25T22:02:47.264Z,99.90
2018-09-25T22:05:21.415Z,99.90
2018-09-25T22:07:55.648Z,99.90
2018-09-25T22:10:30.355Z,99.90
2018-09-25T22:13:04.699Z,99.90
2018-09-25T22:15:39.003Z,99.90
2018-09-25T22:18:13.172Z,99.90
2018-09-25T22:20:47.545Z,99.90
2018-09-25T22:23:21.911Z,99.90
2018-09-25T22:25:56.301Z,99.90
2018-09-25T22:28:30.517Z,99.90
2018-09-25T22:31:04.702Z,99.90
2018-09-25T22:33:39.248Z,99.90
2018-09-25T22:36:13.499Z,99.90
2018-09-25T22:38:47.820Z,99.90
2018-09-25T22:41:22.007Z,99.90
2018-09-25T22:43:56.347Z,99.90
2018-09-25T22:46:30.662Z,99.90
2018-09-25T22:49:05.025Z,99.90
2018-09-25T22:51:39.305Z,99.90
2018-09-25T22:54:13.543Z,99.90
2018-09-25T22:56:47.744Z,99.90
2018-09-25T22:59:21.926Z,99.90
2018-09-25T23:01:56.499Z,99.90
2018-09-25T23:04:31.172Z,99.90
2018-09-25T23:07:06.523Z,99.90
2018-09-25T23:09:40.975Z,99.90
2018-09-25T23:12:15.513Z,99.90
2018-09-25T23:14:49.743Z,99.90
2018-09-25T23:17:24.026Z,99.90
2018-09-25T23:19:58.060Z,99.90
2018-09-25T23:22:32.239Z,99.90
2018-09-25T23:25:06.408Z,99.90
2018-09-25T23:27:41.483Z,99.90
2018-09-25T23:30:17.127Z,99.90
2018-09-25T23:32:53.621Z,99.90
2018-09-25T23:35:28.941Z,99.90
2018-09-25T23:38:04.479Z,99.90
2018-09-25T23:41:37.468Z,99.90
2018-09-25T23:44:12.246Z,99.90
2018-09-25T23:46:46.537Z,99.90
2018-09-25T23:49:27.952Z,99.90
2018-09-25T23:52:02.190Z,99.90
2018-09-25T23:54:36.341Z,99.90
2018-09-25T23:57:10.647Z,99.90
